sensor_id;sensor_type;location;lat;lon;timestamp;P1;durP1;ratioP1;P2;durP2;ratioP2
60372;SDS011;46216;52.220;5.134;2022-10-22T00:00:05;8.85;;;4.30;;
60372;SDS011;46216;52.220;5.134;2022-10-22T00:02:33;8.75;;;4.18;;
60372;SDS011;46216;52.220;5.134;2022-10-22T00:04:59;7.43;;;3.90;;
60372;SDS011;46216;52.220;5.134;2022-10-22T00:07:24;9.05;;;4.13;;
60372;SDS011;46216;52.220;5.134;2022-10-22T00:09:50;7.63;;;4.30;;
60372;SDS011;46216;52.220;5.134;2022-10-22T00:12:15;9.52;;;4.18;;
60372;SDS011;46216;52.220;5.134;2022-10-22T00:14:41;7.13;;;4.10;;
60372;SDS011;46216;52.220;5.134;2022-10-22T00:17:07;7.35;;;4.10;;
60372;SDS011;46216;52.220;5.134;2022-10-22T00:19:32;7.82;;;4.32;;
60372;SDS011;46216;52.220;5.134;2022-10-22T00:21:58;10.15;;;4.07;;
60372;SDS011;46216;52.220;5.134;2022-10-22T00:24:23;9.60;;;4.32;;
60372;SDS011;46216;52.220;5.134;2022-10-22T00:26:49;9.68;;;4.10;;
60372;SDS011;46216;52.220;5.134;2022-10-22T00:29:15;5.85;;;4.28;;
60372;SDS011;46216;52.220;5.134;2022-10-22T00:31:44;8.27;;;4.68;;
60372;SDS011;46216;52.220;5.134;2022-10-22T00:34:13;10.75;;;4.60;;
60372;SDS011;46216;52.220;5.134;2022-10-22T00:36:42;10.60;;;4.65;;
60372;SDS011;46216;52.220;5.134;2022-10-22T00:39:08;10.23;;;4.47;;
60372;SDS011;46216;52.220;5.134;2022-10-22T00:41:34;8.65;;;4.60;;
60372;SDS011;46216;52.220;5.134;2022-10-22T00:44:03;9.73;;;4.65;;
60372;SDS011;46216;52.220;5.134;2022-10-22T00:46:29;8.70;;;4.78;;
60372;SDS011;46216;52.220;5.134;2022-10-22T00:48:56;11.07;;;4.53;;
60372;SDS011;46216;52.220;5.134;2022-10-22T00:51:26;7.28;;;4.30;;
60372;SDS011;46216;52.220;5.134;2022-10-22T00:53:55;7.68;;;4.50;;
60372;SDS011;46216;52.220;5.134;2022-10-22T00:56:24;10.20;;;4.40;;
60372;SDS011;46216;52.220;5.134;2022-10-22T00:58:54;10.95;;;4.93;;
60372;SDS011;46216;52.220;5.134;2022-10-22T01:01:24;8.60;;;4.60;;
60372;SDS011;46216;52.220;5.134;2022-10-22T01:03:52;9.15;;;4.75;;
60372;SDS011;46216;52.220;5.134;2022-10-22T01:06:20;12.75;;;4.70;;
60372;SDS011;46216;52.220;5.134;2022-10-22T01:08:56;11.07;;;4.60;;
60372;SDS011;46216;52.220;5.134;2022-10-22T01:11:48;8.90;;;4.60;;
60372;SDS011;46216;52.220;5.134;2022-10-22T01:17:24;8.70;;;4.60;;
60372;SDS011;46216;52.220;5.134;2022-10-22T01:28:56;8.98;;;5.03;;
60372;SDS011;46216;52.220;5.134;2022-10-22T01:31:26;9.18;;;4.65;;
60372;SDS011;46216;52.220;5.134;2022-10-22T01:33:55;7.60;;;4.85;;
60372;SDS011;46216;52.220;5.134;2022-10-22T01:36:23;9.20;;;4.93;;
60372;SDS011;46216;52.220;5.134;2022-10-22T01:38:49;9.38;;;4.72;;
60372;SDS011;46216;52.220;5.134;2022-10-22T01:41:16;9.15;;;4.80;;
60372;SDS011;46216;52.220;5.134;2022-10-22T01:43:41;9.98;;;4.80;;
60372;SDS011;46216;52.220;5.134;2022-10-22T01:46:08;10.70;;;4.95;;
60372;SDS011;46216;52.220;5.134;2022-10-22T01:48:46;7.97;;;5.40;;
60372;SDS011;46216;52.220;5.134;2022-10-22T01:54:52;9.40;;;4.95;;
60372;SDS011;46216;52.220;5.134;2022-10-22T02:00:12;10.35;;;5.28;;
60372;SDS011;46216;52.220;5.134;2022-10-22T02:07:48;9.82;;;4.72;;
60372;SDS011;46216;52.220;5.134;2022-10-22T02:10:16;10.07;;;5.38;;
60372;SDS011;46216;52.220;5.134;2022-10-22T02:12:43;10.82;;;5.18;;
60372;SDS011;46216;52.220;5.134;2022-10-22T02:15:13;7.38;;;4.57;;
60372;SDS011;46216;52.220;5.134;2022-10-22T02:17:41;13.50;;;5.38;;
60372;SDS011;46216;52.220;5.134;2022-10-22T02:20:12;8.98;;;4.80;;
60372;SDS011;46216;52.220;5.134;2022-10-22T02:22:41;10.93;;;4.53;;
60372;SDS011;46216;52.220;5.134;2022-10-22T02:25:08;10.80;;;4.30;;
60372;SDS011;46216;52.220;5.134;2022-10-22T02:27:36;7.93;;;4.47;;
60372;SDS011;46216;52.220;5.134;2022-10-22T02:30:09;13.43;;;4.30;;
60372;SDS011;46216;52.220;5.134;2022-10-22T02:32:41;13.02;;;4.70;;
60372;SDS011;46216;52.220;5.134;2022-10-22T02:35:12;7.97;;;4.30;;
60372;SDS011;46216;52.220;5.134;2022-10-22T02:37:40;8.63;;;4.15;;
60372;SDS011;46216;52.220;5.134;2022-10-22T02:40:06;9.80;;;4.00;;
60372;SDS011;46216;52.220;5.134;2022-10-22T02:42:32;8.10;;;4.32;;
60372;SDS011;46216;52.220;5.134;2022-10-22T02:45:00;8.63;;;4.20;;
60372;SDS011;46216;52.220;5.134;2022-10-22T02:47:25;6.85;;;3.90;;
60372;SDS011;46216;52.220;5.134;2022-10-22T02:49:51;10.07;;;4.03;;
60372;SDS011;46216;52.220;5.134;2022-10-22T02:52:16;9.98;;;4.20;;
60372;SDS011;46216;52.220;5.134;2022-10-22T02:54:41;6.90;;;3.90;;
60372;SDS011;46216;52.220;5.134;2022-10-22T02:57:07;10.07;;;3.55;;
60372;SDS011;46216;52.220;5.134;2022-10-22T02:59:32;9.13;;;3.85;;
60372;SDS011;46216;52.220;5.134;2022-10-22T03:01:58;10.15;;;3.65;;
60372;SDS011;46216;52.220;5.134;2022-10-22T03:04:23;8.20;;;3.30;;
60372;SDS011;46216;52.220;5.134;2022-10-22T03:06:48;8.57;;;3.55;;
60372;SDS011;46216;52.220;5.134;2022-10-22T03:09:14;10.65;;;3.70;;
60372;SDS011;46216;52.220;5.134;2022-10-22T03:11:39;10.82;;;3.85;;
60372;SDS011;46216;52.220;5.134;2022-10-22T03:14:05;10.13;;;3.60;;
60372;SDS011;46216;52.220;5.134;2022-10-22T03:16:30;9.15;;;3.88;;
60372;SDS011;46216;52.220;5.134;2022-10-22T03:18:55;8.45;;;3.65;;
60372;SDS011;46216;52.220;5.134;2022-10-22T03:21:25;9.95;;;3.80;;
60372;SDS011;46216;52.220;5.134;2022-10-22T03:23:55;7.80;;;3.80;;
60372;SDS011;46216;52.220;5.134;2022-10-22T03:26:22;11.13;;;4.05;;
60372;SDS011;46216;52.220;5.134;2022-10-22T03:28:48;9.18;;;4.03;;
60372;SDS011;46216;52.220;5.134;2022-10-22T03:31:14;9.38;;;3.78;;
60372;SDS011;46216;52.220;5.134;2022-10-22T03:33:39;9.05;;;4.22;;
60372;SDS011;46216;52.220;5.134;2022-10-22T03:36:05;7.95;;;3.75;;
60372;SDS011;46216;52.220;5.134;2022-10-22T03:38:33;13.18;;;4.10;;
60372;SDS011;46216;52.220;5.134;2022-10-22T03:41:00;8.63;;;4.18;;
60372;SDS011;46216;52.220;5.134;2022-10-22T03:43:25;10.68;;;4.13;;
60372;SDS011;46216;52.220;5.134;2022-10-22T03:45:51;9.93;;;3.92;;
60372;SDS011;46216;52.220;5.134;2022-10-22T03:48:16;12.55;;;4.40;;
60372;SDS011;46216;52.220;5.134;2022-10-22T03:50:42;12.57;;;4.75;;
60372;SDS011;46216;52.220;5.134;2022-10-22T03:53:07;10.98;;;4.72;;
60372;SDS011;46216;52.220;5.134;2022-10-22T03:55:34;11.50;;;4.90;;
60372;SDS011;46216;52.220;5.134;2022-10-22T03:58:00;8.55;;;5.13;;
60372;SDS011;46216;52.220;5.134;2022-10-22T04:00:26;10.02;;;4.93;;
60372;SDS011;46216;52.220;5.134;2022-10-22T04:02:51;9.88;;;5.13;;
60372;SDS011;46216;52.220;5.134;2022-10-22T04:05:16;9.35;;;4.75;;
60372;SDS011;46216;52.220;5.134;2022-10-22T04:07:42;12.77;;;5.07;;
60372;SDS011;46216;52.220;5.134;2022-10-22T04:10:07;10.15;;;5.10;;
60372;SDS011;46216;52.220;5.134;2022-10-22T04:12:34;8.13;;;5.30;;
60372;SDS011;46216;52.220;5.134;2022-10-22T04:14:59;9.25;;;5.10;;
60372;SDS011;46216;52.220;5.134;2022-10-22T04:17:24;8.27;;;4.90;;
60372;SDS011;46216;52.220;5.134;2022-10-22T04:19:50;12.43;;;5.57;;
60372;SDS011;46216;52.220;5.134;2022-10-22T04:22:16;10.15;;;5.40;;
60372;SDS011;46216;52.220;5.134;2022-10-22T04:24:41;8.27;;;4.82;;
60372;SDS011;46216;52.220;5.134;2022-10-22T04:27:07;12.05;;;5.13;;
60372;SDS011;46216;52.220;5.134;2022-10-22T04:29:32;8.82;;;5.20;;
60372;SDS011;46216;52.220;5.134;2022-10-22T04:31:58;6.90;;;5.10;;
60372;SDS011;46216;52.220;5.134;2022-10-22T04:34:25;12.00;;;5.88;;
60372;SDS011;46216;52.220;5.134;2022-10-22T04:36:52;9.07;;;5.47;;
60372;SDS011;46216;52.220;5.134;2022-10-22T04:39:17;13.98;;;5.43;;
60372;SDS011;46216;52.220;5.134;2022-10-22T04:41:43;14.20;;;6.15;;
60372;SDS011;46216;52.220;5.134;2022-10-22T04:44:08;10.60;;;5.90;;
60372;SDS011;46216;52.220;5.134;2022-10-22T04:46:34;11.73;;;5.85;;
60372;SDS011;46216;52.220;5.134;2022-10-22T04:48:59;12.68;;;5.20;;
60372;SDS011;46216;52.220;5.134;2022-10-22T04:51:27;11.63;;;5.05;;
60372;SDS011;46216;52.220;5.134;2022-10-22T04:53:52;12.63;;;5.22;;
60372;SDS011;46216;52.220;5.134;2022-10-22T04:56:20;13.02;;;5.60;;
60372;SDS011;46216;52.220;5.134;2022-10-22T04:58:48;11.68;;;5.38;;
60372;SDS011;46216;52.220;5.134;2022-10-22T05:03:43;13.43;;;5.43;;
60372;SDS011;46216;52.220;5.134;2022-10-22T05:06:09;11.25;;;5.25;;
60372;SDS011;46216;52.220;5.134;2022-10-22T05:08:35;12.48;;;5.32;;
60372;SDS011;46216;52.220;5.134;2022-10-22T05:11:08;10.85;;;5.30;;
60372;SDS011;46216;52.220;5.134;2022-10-22T05:13:35;9.82;;;5.25;;
60372;SDS011;46216;52.220;5.134;2022-10-22T05:16:00;8.95;;;5.15;;
60372;SDS011;46216;52.220;5.134;2022-10-22T05:18:26;9.10;;;5.05;;
60372;SDS011;46216;52.220;5.134;2022-10-22T05:20:51;8.13;;;4.57;;
60372;SDS011;46216;52.220;5.134;2022-10-22T05:23:16;10.30;;;5.15;;
60372;SDS011;46216;52.220;5.134;2022-10-22T05:25:42;11.30;;;4.90;;
60372;SDS011;46216;52.220;5.134;2022-10-22T05:28:07;8.77;;;4.53;;
60372;SDS011;46216;52.220;5.134;2022-10-22T05:30:32;8.98;;;4.93;;
60372;SDS011;46216;52.220;5.134;2022-10-22T05:32:58;11.70;;;4.57;;
60372;SDS011;46216;52.220;5.134;2022-10-22T05:35:23;11.98;;;4.80;;
60372;SDS011;46216;52.220;5.134;2022-10-22T05:37:48;9.65;;;5.05;;
60372;SDS011;46216;52.220;5.134;2022-10-22T05:40:14;9.13;;;4.30;;
60372;SDS011;46216;52.220;5.134;2022-10-22T05:42:40;11.32;;;4.25;;
60372;SDS011;46216;52.220;5.134;2022-10-22T05:45:05;11.07;;;4.43;;
60372;SDS011;46216;52.220;5.134;2022-10-22T05:47:32;9.10;;;4.60;;
60372;SDS011;46216;52.220;5.134;2022-10-22T05:49:57;12.15;;;4.75;;
60372;SDS011;46216;52.220;5.134;2022-10-22T05:52:23;11.85;;;4.63;;
60372;SDS011;46216;52.220;5.134;2022-10-22T05:54:48;10.07;;;4.43;;
60372;SDS011;46216;52.220;5.134;2022-10-22T05:57:13;12.52;;;4.10;;
60372;SDS011;46216;52.220;5.134;2022-10-22T05:59:39;10.30;;;3.90;;
60372;SDS011;46216;52.220;5.134;2022-10-22T06:02:04;13.23;;;4.20;;
60372;SDS011;46216;52.220;5.134;2022-10-22T06:04:30;9.20;;;3.70;;
60372;SDS011;46216;52.220;5.134;2022-10-22T06:06:56;9.95;;;3.53;;
60372;SDS011;46216;52.220;5.134;2022-10-22T06:09:26;8.65;;;3.78;;
60372;SDS011;46216;52.220;5.134;2022-10-22T06:11:54;11.73;;;4.00;;
60372;SDS011;46216;52.220;5.134;2022-10-22T06:14:21;7.88;;;3.40;;
60372;SDS011;46216;52.220;5.134;2022-10-22T06:16:46;10.63;;;3.65;;
60372;SDS011;46216;52.220;5.134;2022-10-22T06:19:13;11.32;;;3.63;;
60372;SDS011;46216;52.220;5.134;2022-10-22T06:21:39;10.43;;;3.70;;
60372;SDS011;46216;52.220;5.134;2022-10-22T06:24:05;10.27;;;3.35;;
60372;SDS011;46216;52.220;5.134;2022-10-22T06:26:32;12.85;;;3.80;;
60372;SDS011;46216;52.220;5.134;2022-10-22T06:28:57;9.32;;;3.60;;
60372;SDS011;46216;52.220;5.134;2022-10-22T06:31:23;7.30;;;3.63;;
60372;SDS011;46216;52.220;5.134;2022-10-22T06:33:49;11.55;;;3.75;;
60372;SDS011;46216;52.220;5.134;2022-10-22T06:36:16;12.18;;;3.75;;
60372;SDS011;46216;52.220;5.134;2022-10-22T06:38:43;11.38;;;3.72;;
60372;SDS011;46216;52.220;5.134;2022-10-22T06:41:10;10.05;;;3.50;;
60372;SDS011;46216;52.220;5.134;2022-10-22T06:43:40;10.68;;;3.40;;
60372;SDS011;46216;52.220;5.134;2022-10-22T06:46:06;9.25;;;4.07;;
60372;SDS011;46216;52.220;5.134;2022-10-22T06:48:39;12.57;;;3.90;;
60372;SDS011;46216;52.220;5.134;2022-10-22T06:51:09;8.27;;;3.40;;
60372;SDS011;46216;52.220;5.134;2022-10-22T06:53:35;10.68;;;3.20;;
60372;SDS011;46216;52.220;5.134;2022-10-22T06:56:05;6.82;;;3.30;;
60372;SDS011;46216;52.220;5.134;2022-10-22T06:58:31;8.52;;;3.45;;
60372;SDS011;46216;52.220;5.134;2022-10-22T07:01:01;8.70;;;3.53;;
60372;SDS011;46216;52.220;5.134;2022-10-22T07:03:28;11.90;;;3.45;;
60372;SDS011;46216;52.220;5.134;2022-10-22T07:05:53;10.43;;;3.42;;
60372;SDS011;46216;52.220;5.134;2022-10-22T07:08:18;11.40;;;3.80;;
60372;SDS011;46216;52.220;5.134;2022-10-22T07:10:44;8.82;;;3.28;;
60372;SDS011;46216;52.220;5.134;2022-10-22T07:13:09;10.50;;;3.45;;
60372;SDS011;46216;52.220;5.134;2022-10-22T07:15:34;8.73;;;3.70;;
60372;SDS011;46216;52.220;5.134;2022-10-22T07:18:00;8.90;;;3.50;;
60372;SDS011;46216;52.220;5.134;2022-10-22T07:20:29;13.15;;;3.92;;
60372;SDS011;46216;52.220;5.134;2022-10-22T07:22:54;7.90;;;3.70;;
60372;SDS011;46216;52.220;5.134;2022-10-22T07:25:20;11.57;;;3.35;;
60372;SDS011;46216;52.220;5.134;2022-10-22T07:27:45;12.05;;;3.55;;
60372;SDS011;46216;52.220;5.134;2022-10-22T07:30:10;11.50;;;3.88;;
60372;SDS011;46216;52.220;5.134;2022-10-22T07:32:36;10.32;;;3.35;;
60372;SDS011;46216;52.220;5.134;2022-10-22T07:35:01;12.63;;;3.28;;
60372;SDS011;46216;52.220;5.134;2022-10-22T07:37:27;12.73;;;3.50;;
60372;SDS011;46216;52.220;5.134;2022-10-22T07:39:52;10.35;;;3.17;;
60372;SDS011;46216;52.220;5.134;2022-10-22T07:42:17;11.98;;;3.30;;
60372;SDS011;46216;52.220;5.134;2022-10-22T07:44:43;11.93;;;3.75;;
60372;SDS011;46216;52.220;5.134;2022-10-22T07:47:08;12.63;;;2.83;;
60372;SDS011;46216;52.220;5.134;2022-10-22T07:49:33;8.45;;;2.97;;
60372;SDS011;46216;52.220;5.134;2022-10-22T07:51:58;8.25;;;2.90;;
60372;SDS011;46216;52.220;5.134;2022-10-22T07:54:24;9.85;;;3.33;;
60372;SDS011;46216;52.220;5.134;2022-10-22T07:56:49;10.82;;;3.20;;
60372;SDS011;46216;52.220;5.134;2022-10-22T07:59:14;7.03;;;3.03;;
60372;SDS011;46216;52.220;5.134;2022-10-22T08:01:41;10.02;;;3.15;;
60372;SDS011;46216;52.220;5.134;2022-10-22T08:04:07;10.50;;;2.97;;
60372;SDS011;46216;52.220;5.134;2022-10-22T08:06:34;11.13;;;3.03;;
60372;SDS011;46216;52.220;5.134;2022-10-22T08:09:01;10.32;;;3.13;;
60372;SDS011;46216;52.220;5.134;2022-10-22T08:11:27;9.32;;;3.47;;
60372;SDS011;46216;52.220;5.134;2022-10-22T08:13:52;8.45;;;2.78;;
60372;SDS011;46216;52.220;5.134;2022-10-22T08:16:17;8.75;;;2.72;;
60372;SDS011;46216;52.220;5.134;2022-10-22T08:18:43;8.07;;;2.92;;
60372;SDS011;46216;52.220;5.134;2022-10-22T08:21:10;9.18;;;2.92;;
60372;SDS011;46216;52.220;5.134;2022-10-22T08:23:36;8.00;;;2.78;;
60372;SDS011;46216;52.220;5.134;2022-10-22T08:26:02;6.38;;;2.72;;
60372;SDS011;46216;52.220;5.134;2022-10-22T08:28:28;9.13;;;3.35;;
60372;SDS011;46216;52.220;5.134;2022-10-22T08:30:56;13.35;;;3.10;;
60372;SDS011;46216;52.220;5.134;2022-10-22T08:33:22;11.00;;;3.00;;
60372;SDS011;46216;52.220;5.134;2022-10-22T08:35:50;9.95;;;2.78;;
60372;SDS011;46216;52.220;5.134;2022-10-22T08:38:16;8.10;;;3.00;;
60372;SDS011;46216;52.220;5.134;2022-10-22T08:40:43;11.85;;;3.15;;
60372;SDS011;46216;52.220;5.134;2022-10-22T08:49:18;9.35;;;3.03;;
60372;SDS011;46216;52.220;5.134;2022-10-22T08:51:47;9.15;;;2.85;;
60372;SDS011;46216;52.220;5.134;2022-10-22T08:54:25;11.25;;;3.17;;
60372;SDS011;46216;52.220;5.134;2022-10-22T08:59:34;24.95;;;2.67;;
60372;SDS011;46216;52.220;5.134;2022-10-22T09:02:13;12.35;;;3.05;;
60372;SDS011;46216;52.220;5.134;2022-10-22T09:05:07;10.50;;;2.88;;
60372;SDS011;46216;52.220;5.134;2022-10-22T09:07:44;12.20;;;2.83;;
60372;SDS011;46216;52.220;5.134;2022-10-22T09:10:14;11.68;;;3.33;;
60372;SDS011;46216;52.220;5.134;2022-10-22T09:12:41;13.45;;;3.15;;
60372;SDS011;46216;52.220;5.134;2022-10-22T09:15:10;8.68;;;2.55;;
60372;SDS011;46216;52.220;5.134;2022-10-22T09:17:40;12.90;;;2.97;;
60372;SDS011;46216;52.220;5.134;2022-10-22T09:23:12;10.18;;;3.00;;
60372;SDS011;46216;52.220;5.134;2022-10-22T09:25:47;9.88;;;2.50;;
60372;SDS011;46216;52.220;5.134;2022-10-22T09:28:13;9.35;;;2.67;;
60372;SDS011;46216;52.220;5.134;2022-10-22T09:30:38;16.85;;;5.13;;
60372;SDS011;46216;52.220;5.134;2022-10-22T09:35:29;12.80;;;2.47;;
60372;SDS011;46216;52.220;5.134;2022-10-22T09:38:01;5.13;;;2.70;;
60372;SDS011;46216;52.220;5.134;2022-10-22T09:40:31;8.48;;;2.45;;
60372;SDS011;46216;52.220;5.134;2022-10-22T09:43:11;13.02;;;3.03;;
60372;SDS011;46216;52.220;5.134;2022-10-22T09:45:37;7.68;;;2.30;;
60372;SDS011;46216;52.220;5.134;2022-10-22T09:50:56;15.38;;;2.90;;
60372;SDS011;46216;52.220;5.134;2022-10-22T09:53:31;7.90;;;2.40;;
60372;SDS011;46216;52.220;5.134;2022-10-22T09:56:05;6.45;;;2.55;;
60372;SDS011;46216;52.220;5.134;2022-10-22T09:58:40;8.85;;;2.58;;
60372;SDS011;46216;52.220;5.134;2022-10-22T10:01:33;5.82;;;2.28;;
60372;SDS011;46216;52.220;5.134;2022-10-22T10:04:01;13.25;;;2.95;;
60372;SDS011;46216;52.220;5.134;2022-10-22T10:06:29;12.75;;;2.78;;
60372;SDS011;46216;52.220;5.134;2022-10-22T10:08:56;10.50;;;2.63;;
60372;SDS011;46216;52.220;5.134;2022-10-22T10:11:27;10.10;;;2.75;;
60372;SDS011;46216;52.220;5.134;2022-10-22T10:16:42;12.13;;;2.72;;
60372;SDS011;46216;52.220;5.134;2022-10-22T10:22:26;11.55;;;3.30;;
60372;SDS011;46216;52.220;5.134;2022-10-22T10:30:14;9.05;;;2.92;;
60372;SDS011;46216;52.220;5.134;2022-10-22T10:41:16;9.57;;;3.00;;
60372;SDS011;46216;52.220;5.134;2022-10-22T10:49:28;9.35;;;2.55;;
60372;SDS011;46216;52.220;5.134;2022-10-22T10:57:48;10.25;;;2.40;;
60372;SDS011;46216;52.220;5.134;2022-10-22T11:00:25;8.30;;;2.30;;
60372;SDS011;46216;52.220;5.134;2022-10-22T11:06:18;10.10;;;2.30;;
60372;SDS011;46216;52.220;5.134;2022-10-22T11:08:53;8.15;;;2.20;;
60372;SDS011;46216;52.220;5.134;2022-10-22T11:11:30;8.95;;;2.53;;
60372;SDS011;46216;52.220;5.134;2022-10-22T11:14:13;7.43;;;1.92;;
60372;SDS011;46216;52.220;5.134;2022-10-22T11:16:45;8.90;;;2.53;;
60372;SDS011;46216;52.220;5.134;2022-10-22T11:19:19;6.53;;;1.92;;
60372;SDS011;46216;52.220;5.134;2022-10-22T11:22:02;11.48;;;2.13;;
60372;SDS011;46216;52.220;5.134;2022-10-22T11:24:46;8.40;;;1.95;;
60372;SDS011;46216;52.220;5.134;2022-10-22T11:27:24;8.70;;;2.20;;
60372;SDS011;46216;52.220;5.134;2022-10-22T11:29:58;8.25;;;2.20;;
60372;SDS011;46216;52.220;5.134;2022-10-22T11:32:26;7.28;;;2.00;;
60372;SDS011;46216;52.220;5.134;2022-10-22T11:34:57;11.32;;;2.38;;
60372;SDS011;46216;52.220;5.134;2022-10-22T11:37:25;9.27;;;2.28;;
60372;SDS011;46216;52.220;5.134;2022-10-22T11:45:57;9.90;;;1.98;;
60372;SDS011;46216;52.220;5.134;2022-10-22T11:48:34;11.20;;;2.08;;
60372;SDS011;46216;52.220;5.134;2022-10-22T11:51:01;13.38;;;2.22;;
60372;SDS011;46216;52.220;5.134;2022-10-22T11:53:31;12.45;;;1.98;;
60372;SDS011;46216;52.220;5.134;2022-10-22T11:58:31;10.30;;;2.00;;
60372;SDS011;46216;52.220;5.134;2022-10-22T12:08:57;13.18;;;2.13;;
60372;SDS011;46216;52.220;5.134;2022-10-22T12:11:36;7.60;;;1.80;;
60372;SDS011;46216;52.220;5.134;2022-10-22T12:17:09;8.23;;;1.77;;
60372;SDS011;46216;52.220;5.134;2022-10-22T12:19:39;11.70;;;2.10;;
60372;SDS011;46216;52.220;5.134;2022-10-22T12:22:14;15.05;;;3.13;;
60372;SDS011;46216;52.220;5.134;2022-10-22T12:24:47;11.50;;;2.00;;
60372;SDS011;46216;52.220;5.134;2022-10-22T12:27:18;10.25;;;2.10;;
60372;SDS011;46216;52.220;5.134;2022-10-22T12:29:56;7.93;;;2.20;;
60372;SDS011;46216;52.220;5.134;2022-10-22T12:32:23;11.85;;;2.67;;
60372;SDS011;46216;52.220;5.134;2022-10-22T12:34:57;7.20;;;1.90;;
60372;SDS011;46216;52.220;5.134;2022-10-22T12:37:33;11.52;;;2.17;;
60372;SDS011;46216;52.220;5.134;2022-10-22T12:40:01;8.63;;;2.03;;
60372;SDS011;46216;52.220;5.134;2022-10-22T12:42:26;16.30;;;3.10;;
60372;SDS011;46216;52.220;5.134;2022-10-22T12:44:55;10.55;;;2.22;;
60372;SDS011;46216;52.220;5.134;2022-10-22T12:47:21;9.85;;;2.30;;
60372;SDS011;46216;52.220;5.134;2022-10-22T12:49:47;9.15;;;2.10;;
60372;SDS011;46216;52.220;5.134;2022-10-22T12:52:17;11.80;;;2.10;;
60372;SDS011;46216;52.220;5.134;2022-10-22T12:54:45;10.20;;;2.28;;
60372;SDS011;46216;52.220;5.134;2022-10-22T12:57:13;11.55;;;2.30;;
60372;SDS011;46216;52.220;5.134;2022-10-22T12:59:42;8.43;;;2.15;;
60372;SDS011;46216;52.220;5.134;2022-10-22T13:04:41;10.00;;;2.58;;
60372;SDS011;46216;52.220;5.134;2022-10-22T13:07:39;10.30;;;2.28;;
60372;SDS011;46216;52.220;5.134;2022-10-22T13:10:12;9.43;;;2.05;;
60372;SDS011;46216;52.220;5.134;2022-10-22T13:12:43;9.13;;;2.08;;
60372;SDS011;46216;52.220;5.134;2022-10-22T13:18:16;11.75;;;2.30;;
60372;SDS011;46216;52.220;5.134;2022-10-22T13:20:48;12.55;;;2.83;;
60372;SDS011;46216;52.220;5.134;2022-10-22T13:23:19;8.98;;;2.10;;
60372;SDS011;46216;52.220;5.134;2022-10-22T13:28:39;7.43;;;2.10;;
60372;SDS011;46216;52.220;5.134;2022-10-22T13:31:10;10.90;;;2.30;;
60372;SDS011;46216;52.220;5.134;2022-10-22T13:33:42;9.38;;;2.05;;
60372;SDS011;46216;52.220;5.134;2022-10-22T13:36:13;10.93;;;2.40;;
60372;SDS011;46216;52.220;5.134;2022-10-22T13:38:40;9.27;;;2.75;;
60372;SDS011;46216;52.220;5.134;2022-10-22T13:41:26;11.93;;;2.50;;
60372;SDS011;46216;52.220;5.134;2022-10-22T13:43:53;8.98;;;2.38;;
60372;SDS011;46216;52.220;5.134;2022-10-22T13:46:19;15.63;;;2.60;;
60372;SDS011;46216;52.220;5.134;2022-10-22T13:48:46;12.73;;;2.85;;
60372;SDS011;46216;52.220;5.134;2022-10-22T13:51:15;10.15;;;2.35;;
60372;SDS011;46216;52.220;5.134;2022-10-22T13:53:42;10.93;;;2.40;;
60372;SDS011;46216;52.220;5.134;2022-10-22T13:56:12;12.13;;;2.65;;
60372;SDS011;46216;52.220;5.134;2022-10-22T13:58:42;12.05;;;3.25;;
60372;SDS011;46216;52.220;5.134;2022-10-22T14:01:25;8.32;;;2.30;;
60372;SDS011;46216;52.220;5.134;2022-10-22T14:03:52;18.70;;;3.13;;
60372;SDS011;46216;52.220;5.134;2022-10-22T14:06:20;14.20;;;2.80;;
60372;SDS011;46216;52.220;5.134;2022-10-22T14:08:52;13.02;;;2.80;;
60372;SDS011;46216;52.220;5.134;2022-10-22T14:11:20;11.20;;;2.65;;
60372;SDS011;46216;52.220;5.134;2022-10-22T14:13:45;12.38;;;2.92;;
60372;SDS011;46216;52.220;5.134;2022-10-22T14:16:15;13.75;;;2.85;;
60372;SDS011;46216;52.220;5.134;2022-10-22T14:18:44;12.10;;;2.70;;
60372;SDS011;46216;52.220;5.134;2022-10-22T14:21:09;11.82;;;2.90;;
60372;SDS011;46216;52.220;5.134;2022-10-22T14:23:37;11.90;;;3.15;;
60372;SDS011;46216;52.220;5.134;2022-10-22T14:26:04;11.85;;;2.60;;
60372;SDS011;46216;52.220;5.134;2022-10-22T14:28:31;12.88;;;2.67;;
60372;SDS011;46216;52.220;5.134;2022-10-22T14:30:58;10.70;;;2.78;;
60372;SDS011;46216;52.220;5.134;2022-10-22T14:35:58;11.02;;;2.22;;
60372;SDS011;46216;52.220;5.134;2022-10-22T14:38:24;10.27;;;2.50;;
60372;SDS011;46216;52.220;5.134;2022-10-22T14:40:49;12.32;;;2.50;;
60372;SDS011;46216;52.220;5.134;2022-10-22T14:43:21;9.38;;;2.15;;
60372;SDS011;46216;52.220;5.134;2022-10-22T14:45:48;12.82;;;2.40;;
60372;SDS011;46216;52.220;5.134;2022-10-22T14:48:14;11.18;;;2.38;;
60372;SDS011;46216;52.220;5.134;2022-10-22T14:50:40;11.57;;;2.17;;
60372;SDS011;46216;52.220;5.134;2022-10-22T14:53:06;10.40;;;2.75;;
60372;SDS011;46216;52.220;5.134;2022-10-22T14:55:31;10.63;;;2.45;;
60372;SDS011;46216;52.220;5.134;2022-10-22T14:57:57;10.45;;;2.20;;
60372;SDS011;46216;52.220;5.134;2022-10-22T15:00:22;10.13;;;2.38;;
60372;SDS011;46216;52.220;5.134;2022-10-22T15:02:47;11.13;;;2.13;;
60372;SDS011;46216;52.220;5.134;2022-10-22T15:05:13;11.60;;;2.20;;
60372;SDS011;46216;52.220;5.134;2022-10-22T15:07:39;8.13;;;2.10;;
60372;SDS011;46216;52.220;5.134;2022-10-22T15:10:05;9.32;;;2.40;;
60372;SDS011;46216;52.220;5.134;2022-10-22T15:12:31;8.23;;;1.92;;
60372;SDS011;46216;52.220;5.134;2022-10-22T15:14:56;10.55;;;2.40;;
60372;SDS011;46216;52.220;5.134;2022-10-22T15:17:22;10.75;;;2.13;;
60372;SDS011;46216;52.220;5.134;2022-10-22T15:19:47;9.32;;;2.45;;
60372;SDS011;46216;52.220;5.134;2022-10-22T15:22:13;12.77;;;2.53;;
60372;SDS011;46216;52.220;5.134;2022-10-22T15:24:40;12.93;;;2.30;;
60372;SDS011;46216;52.220;5.134;2022-10-22T15:27:09;10.15;;;2.40;;
60372;SDS011;46216;52.220;5.134;2022-10-22T15:29:38;8.75;;;2.05;;
60372;SDS011;46216;52.220;5.134;2022-10-22T15:32:03;7.57;;;2.00;;
60372;SDS011;46216;52.220;5.134;2022-10-22T15:34:30;8.52;;;2.17;;
60372;SDS011;46216;52.220;5.134;2022-10-22T15:36:57;10.98;;;2.33;;
60372;SDS011;46216;52.220;5.134;2022-10-22T15:39:24;12.10;;;2.30;;
60372;SDS011;46216;52.220;5.134;2022-10-22T15:41:50;12.70;;;2.55;;
60372;SDS011;46216;52.220;5.134;2022-10-22T15:44:17;8.40;;;2.72;;
60372;SDS011;46216;52.220;5.134;2022-10-22T15:46:48;19.25;;;2.78;;
60372;SDS011;46216;52.220;5.134;2022-10-22T15:49:14;8.40;;;2.20;;
60372;SDS011;46216;52.220;5.134;2022-10-22T15:51:40;9.90;;;2.22;;
60372;SDS011;46216;52.220;5.134;2022-10-22T15:54:06;9.57;;;1.98;;
60372;SDS011;46216;52.220;5.134;2022-10-22T15:56:31;13.10;;;2.47;;
60372;SDS011;46216;52.220;5.134;2022-10-22T15:58:58;10.60;;;2.70;;
60372;SDS011;46216;52.220;5.134;2022-10-22T16:01:27;11.27;;;2.50;;
60372;SDS011;46216;52.220;5.134;2022-10-22T16:03:53;12.32;;;2.92;;
60372;SDS011;46216;52.220;5.134;2022-10-22T16:06:26;14.02;;;2.65;;
60372;SDS011;46216;52.220;5.134;2022-10-22T16:08:53;9.25;;;2.50;;
60372;SDS011;46216;52.220;5.134;2022-10-22T16:11:20;10.48;;;2.50;;
60372;SDS011;46216;52.220;5.134;2022-10-22T16:13:45;12.65;;;2.65;;
60372;SDS011;46216;52.220;5.134;2022-10-22T16:16:12;13.13;;;2.85;;
60372;SDS011;46216;52.220;5.134;2022-10-22T16:18:37;10.52;;;2.45;;
60372;SDS011;46216;52.220;5.134;2022-10-22T16:21:02;11.40;;;2.90;;
60372;SDS011;46216;52.220;5.134;2022-10-22T16:23:28;12.32;;;2.63;;
60372;SDS011;46216;52.220;5.134;2022-10-22T16:25:53;8.75;;;2.67;;
60372;SDS011;46216;52.220;5.134;2022-10-22T16:28:18;9.43;;;2.72;;
60372;SDS011;46216;52.220;5.134;2022-10-22T16:30:44;14.90;;;3.13;;
60372;SDS011;46216;52.220;5.134;2022-10-22T16:33:09;10.55;;;2.97;;